sensor_id;sensor_type;location;lat;lon;timestamp;P1;durP1;ratioP1;P2;durP2;ratioP2
14040;SDS011;7095;51.388;6.196;2024-03-17T00:01:38;8.83;;;6.90;;
14040;SDS011;7095;51.388;6.196;2024-03-17T00:04:07;10.03;;;7.33;;
14040;SDS011;7095;51.388;6.196;2024-03-17T00:06:35;15.93;;;7.77;;
14040;SDS011;7095;51.388;6.196;2024-03-17T00:09:03;12.97;;;8.57;;
14040;SDS011;7095;51.388;6.196;2024-03-17T00:11:32;13.60;;;8.50;;
14040;SDS011;7095;51.388;6.196;2024-03-17T00:14:01;14.87;;;8.90;;
14040;SDS011;7095;51.388;6.196;2024-03-17T00:16:28;14.87;;;8.60;;
14040;SDS011;7095;51.388;6.196;2024-03-17T00:18:56;13.20;;;9.57;;
14040;SDS011;7095;51.388;6.196;2024-03-17T00:21:24;15.33;;;10.20;;
14040;SDS011;7095;51.388;6.196;2024-03-17T00:23:53;14.70;;;9.77;;
14040;SDS011;7095;51.388;6.196;2024-03-17T00:26:22;12.33;;;9.13;;
14040;SDS011;7095;51.388;6.196;2024-03-17T00:28:49;18.77;;;10.27;;
14040;SDS011;7095;51.388;6.196;2024-03-17T00:31:18;16.27;;;10.23;;
14040;SDS011;7095;51.388;6.196;2024-03-17T00:33:44;12.33;;;9.63;;
14040;SDS011;7095;51.388;6.196;2024-03-17T00:36:12;15.07;;;10.70;;
14040;SDS011;7095;51.388;6.196;2024-03-17T00:38:39;19.17;;;10.77;;
14040;SDS011;7095;51.388;6.196;2024-03-17T00:41:08;13.90;;;10.27;;
14040;SDS011;7095;51.388;6.196;2024-03-17T00:43:34;15.00;;;11.30;;
14040;SDS011;7095;51.388;6.196;2024-03-17T00:46:03;15.80;;;10.67;;
14040;SDS011;7095;51.388;6.196;2024-03-17T00:48:30;20.30;;;10.40;;
14040;SDS011;7095;51.388;6.196;2024-03-17T00:50:58;16.17;;;11.23;;
14040;SDS011;7095;51.388;6.196;2024-03-17T00:53:25;17.17;;;11.17;;
14040;SDS011;7095;51.388;6.196;2024-03-17T00:55:53;17.30;;;10.63;;
14040;SDS011;7095;51.388;6.196;2024-03-17T00:58:25;16.53;;;10.67;;
14040;SDS011;7095;51.388;6.196;2024-03-17T01:00:54;13.87;;;10.33;;
14040;SDS011;7095;51.388;6.196;2024-03-17T01:03:21;17.37;;;11.60;;
14040;SDS011;7095;51.388;6.196;2024-03-17T01:05:48;19.07;;;12.30;;
14040;SDS011;7095;51.388;6.196;2024-03-17T01:08:18;16.93;;;10.83;;
14040;SDS011;7095;51.388;6.196;2024-03-17T01:10:46;15.07;;;11.23;;
14040;SDS011;7095;51.388;6.196;2024-03-17T01:13:16;15.30;;;11.13;;
14040;SDS011;7095;51.388;6.196;2024-03-17T01:15:52;20.53;;;11.10;;
14040;SDS011;7095;51.388;6.196;2024-03-17T01:18:20;17.33;;;12.13;;
14040;SDS011;7095;51.388;6.196;2024-03-17T01:20:48;16.70;;;10.90;;
14040;SDS011;7095;51.388;6.196;2024-03-17T01:23:14;19.57;;;12.47;;
14040;SDS011;7095;51.388;6.196;2024-03-17T01:25:42;15.20;;;11.43;;
14040;SDS011;7095;51.388;6.196;2024-03-17T01:28:09;16.43;;;10.80;;
14040;SDS011;7095;51.388;6.196;2024-03-17T01:30:40;19.37;;;11.87;;
14040;SDS011;7095;51.388;6.196;2024-03-17T01:33:08;15.50;;;11.37;;
14040;SDS011;7095;51.388;6.196;2024-03-17T01:35:38;19.77;;;12.17;;
14040;SDS011;7095;51.388;6.196;2024-03-17T01:38:05;16.90;;;11.80;;
14040;SDS011;7095;51.388;6.196;2024-03-17T01:40:36;16.73;;;11.50;;
14040;SDS011;7095;51.388;6.196;2024-03-17T01:43:02;15.60;;;11.13;;
14040;SDS011;7095;51.388;6.196;2024-03-17T01:45:31;16.27;;;11.70;;
14040;SDS011;7095;51.388;6.196;2024-03-17T01:47:59;19.70;;;13.13;;
14040;SDS011;7095;51.388;6.196;2024-03-17T01:50:30;15.73;;;11.70;;
14040;SDS011;7095;51.388;6.196;2024-03-17T01:53:00;18.07;;;13.40;;
14040;SDS011;7095;51.388;6.196;2024-03-17T01:55:30;17.00;;;12.57;;
14040;SDS011;7095;51.388;6.196;2024-03-17T01:57:58;18.43;;;12.80;;
14040;SDS011;7095;51.388;6.196;2024-03-17T02:00:27;18.17;;;11.50;;
14040;SDS011;7095;51.388;6.196;2024-03-17T02:02:55;15.73;;;12.37;;
14040;SDS011;7095;51.388;6.196;2024-03-17T02:05:25;15.17;;;11.13;;
14040;SDS011;7095;51.388;6.196;2024-03-17T02:07:54;19.73;;;14.23;;
14040;SDS011;7095;51.388;6.196;2024-03-17T02:10:23;21.77;;;14.20;;
14040;SDS011;7095;51.388;6.196;2024-03-17T02:12:51;19.43;;;12.67;;
14040;SDS011;7095;51.388;6.196;2024-03-17T02:15:20;21.70;;;14.03;;
14040;SDS011;7095;51.388;6.196;2024-03-17T02:17:48;20.97;;;13.40;;
14040;SDS011;7095;51.388;6.196;2024-03-17T02:20:16;21.63;;;14.47;;
14040;SDS011;7095;51.388;6.196;2024-03-17T02:22:46;25.73;;;14.70;;
14040;SDS011;7095;51.388;6.196;2024-03-17T02:25:13;24.13;;;13.80;;
14040;SDS011;7095;51.388;6.196;2024-03-17T02:27:41;28.13;;;15.37;;
14040;SDS011;7095;51.388;6.196;2024-03-17T02:30:08;22.40;;;16.13;;
14040;SDS011;7095;51.388;6.196;2024-03-17T02:32:36;25.37;;;16.13;;
14040;SDS011;7095;51.388;6.196;2024-03-17T02:35:03;24.47;;;16.90;;
14040;SDS011;7095;51.388;6.196;2024-03-17T02:37:31;18.93;;;14.53;;
14040;SDS011;7095;51.388;6.196;2024-03-17T02:40:00;22.90;;;15.97;;
14040;SDS011;7095;51.388;6.196;2024-03-17T02:42:29;19.43;;;15.03;;
14040;SDS011;7095;51.388;6.196;2024-03-17T02:44:57;24.37;;;16.07;;
14040;SDS011;7095;51.388;6.196;2024-03-17T02:47:26;19.33;;;13.70;;
14040;SDS011;7095;51.388;6.196;2024-03-17T02:49:53;26.20;;;16.00;;
14040;SDS011;7095;51.388;6.196;2024-03-17T02:52:20;23.57;;;16.57;;
14040;SDS011;7095;51.388;6.196;2024-03-17T02:54:48;26.30;;;15.47;;
14040;SDS011;7095;51.388;6.196;2024-03-17T02:57:18;20.10;;;14.13;;
14040;SDS011;7095;51.388;6.196;2024-03-17T02:59:47;20.97;;;14.20;;
14040;SDS011;7095;51.388;6.196;2024-03-17T03:02:15;15.83;;;12.30;;
14040;SDS011;7095;51.388;6.196;2024-03-17T03:04:43;22.80;;;15.50;;
14040;SDS011;7095;51.388;6.196;2024-03-17T03:07:11;26.87;;;16.17;;
14040;SDS011;7095;51.388;6.196;2024-03-17T03:09:39;25.33;;;16.83;;
14040;SDS011;7095;51.388;6.196;2024-03-17T03:12:07;25.20;;;16.70;;
14040;SDS011;7095;51.388;6.196;2024-03-17T03:14:37;25.37;;;16.63;;
14040;SDS011;7095;51.388;6.196;2024-03-17T03:17:05;20.90;;;15.73;;
14040;SDS011;7095;51.388;6.196;2024-03-17T03:19:34;23.37;;;15.50;;
14040;SDS011;7095;51.388;6.196;2024-03-17T03:22:01;28.23;;;18.27;;
14040;SDS011;7095;51.388;6.196;2024-03-17T03:24:28;24.87;;;16.93;;
14040;SDS011;7095;51.388;6.196;2024-03-17T03:26:56;26.80;;;18.40;;
14040;SDS011;7095;51.388;6.196;2024-03-17T03:29:25;31.63;;;17.93;;
14040;SDS011;7095;51.388;6.196;2024-03-17T03:31:55;25.73;;;16.93;;
14040;SDS011;7095;51.388;6.196;2024-03-17T03:34:24;26.60;;;17.80;;
14040;SDS011;7095;51.388;6.196;2024-03-17T03:36:52;28.07;;;17.17;;
14040;SDS011;7095;51.388;6.196;2024-03-17T03:39:20;30.80;;;18.40;;
14040;SDS011;7095;51.388;6.196;2024-03-17T03:41:48;25.83;;;17.77;;
14040;SDS011;7095;51.388;6.196;2024-03-17T03:44:16;25.27;;;16.37;;
14040;SDS011;7095;51.388;6.196;2024-03-17T03:46:46;25.73;;;17.33;;
14040;SDS011;7095;51.388;6.196;2024-03-17T03:49:15;25.17;;;16.10;;
14040;SDS011;7095;51.388;6.196;2024-03-17T03:51:45;28.33;;;16.67;;
14040;SDS011;7095;51.388;6.196;2024-03-17T03:54:15;27.40;;;15.83;;
14040;SDS011;7095;51.388;6.196;2024-03-17T03:56:44;31.13;;;16.97;;
14040;SDS011;7095;51.388;6.196;2024-03-17T03:59:11;25.43;;;16.23;;
14040;SDS011;7095;51.388;6.196;2024-03-17T04:01:39;27.70;;;16.67;;
14040;SDS011;7095;51.388;6.196;2024-03-17T04:04:07;32.83;;;18.07;;
14040;SDS011;7095;51.388;6.196;2024-03-17T04:06:40;38.47;;;17.37;;
14040;SDS011;7095;51.388;6.196;2024-03-17T04:09:08;30.23;;;16.07;;
14040;SDS011;7095;51.388;6.196;2024-03-17T04:11:37;24.70;;;15.57;;
14040;SDS011;7095;51.388;6.196;2024-03-17T04:14:05;28.27;;;16.13;;
14040;SDS011;7095;51.388;6.196;2024-03-17T04:16:33;27.63;;;16.10;;
14040;SDS011;7095;51.388;6.196;2024-03-17T04:19:01;25.37;;;14.73;;
14040;SDS011;7095;51.388;6.196;2024-03-17T04:21:30;20.50;;;14.60;;
14040;SDS011;7095;51.388;6.196;2024-03-17T04:23:59;24.40;;;14.20;;
14040;SDS011;7095;51.388;6.196;2024-03-17T04:26:27;20.20;;;13.97;;
14040;SDS011;7095;51.388;6.196;2024-03-17T04:28:56;24.50;;;14.77;;
14040;SDS011;7095;51.388;6.196;2024-03-17T04:31:24;23.23;;;13.97;;
14040;SDS011;7095;51.388;6.196;2024-03-17T04:33:52;25.70;;;13.47;;
14040;SDS011;7095;51.388;6.196;2024-03-17T04:36:20;18.33;;;12.93;;
14040;SDS011;7095;51.388;6.196;2024-03-17T04:38:51;18.00;;;12.77;;
14040;SDS011;7095;51.388;6.196;2024-03-17T04:41:23;25.23;;;12.93;;
14040;SDS011;7095;51.388;6.196;2024-03-17T04:43:51;19.83;;;12.87;;
14040;SDS011;7095;51.388;6.196;2024-03-17T04:46:19;20.73;;;13.53;;
14040;SDS011;7095;51.388;6.196;2024-03-17T04:48:48;21.53;;;12.93;;
14040;SDS011;7095;51.388;6.196;2024-03-17T04:51:16;17.43;;;12.70;;
14040;SDS011;7095;51.388;6.196;2024-03-17T04:53:45;18.10;;;12.27;;
14040;SDS011;7095;51.388;6.196;2024-03-17T04:56:13;20.50;;;12.53;;
14040;SDS011;7095;51.388;6.196;2024-03-17T04:58:43;20.40;;;12.50;;
14040;SDS011;7095;51.388;6.196;2024-03-17T05:01:11;19.53;;;12.53;;
14040;SDS011;7095;51.388;6.196;2024-03-17T05:03:39;19.83;;;12.30;;
14040;SDS011;7095;51.388;6.196;2024-03-17T05:06:06;16.73;;;11.70;;
14040;SDS011;7095;51.388;6.196;2024-03-17T05:08:35;16.43;;;11.93;;
14040;SDS011;7095;51.388;6.196;2024-03-17T05:11:03;18.23;;;11.73;;
14040;SDS011;7095;51.388;6.196;2024-03-17T05:13:31;16.90;;;11.63;;
14040;SDS011;7095;51.388;6.196;2024-03-17T05:16:02;17.73;;;11.60;;
14040;SDS011;7095;51.388;6.196;2024-03-17T05:18:30;18.30;;;11.57;;
14040;SDS011;7095;51.388;6.196;2024-03-17T05:20:59;18.60;;;11.20;;
14040;SDS011;7095;51.388;6.196;2024-03-17T05:23:28;15.77;;;11.07;;
14040;SDS011;7095;51.388;6.196;2024-03-17T05:25:56;17.50;;;10.83;;
14040;SDS011;7095;51.388;6.196;2024-03-17T05:28:25;16.50;;;11.47;;
14040;SDS011;7095;51.388;6.196;2024-03-17T05:30:54;16.53;;;11.77;;
14040;SDS011;7095;51.388;6.196;2024-03-17T05:33:24;18.87;;;12.00;;
14040;SDS011;7095;51.388;6.196;2024-03-17T05:35:53;15.67;;;10.97;;
14040;SDS011;7095;51.388;6.196;2024-03-17T05:38:22;14.87;;;10.80;;
14040;SDS011;7095;51.388;6.196;2024-03-17T05:40:55;17.00;;;11.10;;
14040;SDS011;7095;51.388;6.196;2024-03-17T05:43:24;12.30;;;10.13;;
14040;SDS011;7095;51.388;6.196;2024-03-17T05:45:52;18.47;;;11.57;;
14040;SDS011;7095;51.388;6.196;2024-03-17T05:48:22;20.60;;;11.97;;
14040;SDS011;7095;51.388;6.196;2024-03-17T05:50:51;21.17;;;10.03;;
14040;SDS011;7095;51.388;6.196;2024-03-17T05:53:21;18.37;;;11.53;;
14040;SDS011;7095;51.388;6.196;2024-03-17T05:55:50;17.80;;;12.07;;
14040;SDS011;7095;51.388;6.196;2024-03-17T05:58:18;17.07;;;11.23;;
14040;SDS011;7095;51.388;6.196;2024-03-17T06:00:45;16.53;;;11.87;;
14040;SDS011;7095;51.388;6.196;2024-03-17T06:03:12;23.57;;;11.43;;
14040;SDS011;7095;51.388;6.196;2024-03-17T06:05:42;13.53;;;10.90;;
14040;SDS011;7095;51.388;6.196;2024-03-17T06:08:11;18.80;;;10.87;;
14040;SDS011;7095;51.388;6.196;2024-03-17T06:10:43;16.37;;;11.60;;
14040;SDS011;7095;51.388;6.196;2024-03-17T06:13:12;14.87;;;11.43;;
14040;SDS011;7095;51.388;6.196;2024-03-17T06:15:42;17.83;;;10.73;;
14040;SDS011;7095;51.388;6.196;2024-03-17T06:18:13;17.60;;;11.50;;
14040;SDS011;7095;51.388;6.196;2024-03-17T06:20:45;14.57;;;10.27;;
14040;SDS011;7095;51.388;6.196;2024-03-17T06:23:13;16.00;;;10.07;;
14040;SDS011;7095;51.388;6.196;2024-03-17T06:25:42;14.70;;;10.57;;
14040;SDS011;7095;51.388;6.196;2024-03-17T06:28:12;13.70;;;9.67;;
14040;SDS011;7095;51.388;6.196;2024-03-17T06:30:41;16.90;;;10.00;;
14040;SDS011;7095;51.388;6.196;2024-03-17T06:33:16;13.53;;;9.37;;
14040;SDS011;7095;51.388;6.196;2024-03-17T06:35:47;14.07;;;9.50;;
14040;SDS011;7095;51.388;6.196;2024-03-17T06:38:15;11.97;;;9.40;;
14040;SDS011;7095;51.388;6.196;2024-03-17T06:40:47;12.77;;;9.03;;
14040;SDS011;7095;51.388;6.196;2024-03-17T06:43:17;16.50;;;10.07;;
14040;SDS011;7095;51.388;6.196;2024-03-17T06:45:53;12.13;;;8.17;;
14040;SDS011;7095;51.388;6.196;2024-03-17T06:48:22;11.73;;;8.33;;
14040;SDS011;7095;51.388;6.196;2024-03-17T06:50:51;9.93;;;7.77;;
14040;SDS011;7095;51.388;6.196;2024-03-17T06:53:20;11.13;;;8.33;;
14040;SDS011;7095;51.388;6.196;2024-03-17T06:55:54;9.73;;;8.47;;
14040;SDS011;7095;51.388;6.196;2024-03-17T06:58:23;15.33;;;8.13;;
14040;SDS011;7095;51.388;6.196;2024-03-17T07:00:56;9.87;;;8.57;;
14040;SDS011;7095;51.388;6.196;2024-03-17T07:03:25;11.33;;;8.00;;
14040;SDS011;7095;51.388;6.196;2024-03-17T07:05:55;10.80;;;7.73;;
14040;SDS011;7095;51.388;6.196;2024-03-17T07:08:24;11.63;;;7.83;;
14040;SDS011;7095;51.388;6.196;2024-03-17T07:10:56;10.30;;;7.93;;
14040;SDS011;7095;51.388;6.196;2024-03-17T07:13:23;11.00;;;7.00;;
14040;SDS011;7095;51.388;6.196;2024-03-17T07:15:55;8.63;;;7.43;;
14040;SDS011;7095;51.388;6.196;2024-03-17T07:18:28;9.63;;;7.40;;
14040;SDS011;7095;51.388;6.196;2024-03-17T07:21:07;11.13;;;7.57;;
14040;SDS011;7095;51.388;6.196;2024-03-17T07:23:37;11.47;;;7.10;;
14040;SDS011;7095;51.388;6.196;2024-03-17T07:26:07;10.63;;;6.40;;
14040;SDS011;7095;51.388;6.196;2024-03-17T07:28:37;11.33;;;7.17;;
14040;SDS011;7095;51.388;6.196;2024-03-17T07:31:11;10.10;;;6.83;;
14040;SDS011;7095;51.388;6.196;2024-03-17T07:33:50;11.77;;;6.20;;
14040;SDS011;7095;51.388;6.196;2024-03-17T07:36:21;13.37;;;6.93;;
14040;SDS011;7095;51.388;6.196;2024-03-17T07:38:52;8.77;;;6.83;;
14040;SDS011;7095;51.388;6.196;2024-03-17T07:41:20;9.53;;;6.50;;
14040;SDS011;7095;51.388;6.196;2024-03-17T07:43:50;8.53;;;6.87;;
14040;SDS011;7095;51.388;6.196;2024-03-17T07:46:18;8.10;;;6.57;;
14040;SDS011;7095;51.388;6.196;2024-03-17T07:48:45;8.47;;;6.63;;
14040;SDS011;7095;51.388;6.196;2024-03-17T07:51:15;9.93;;;6.67;;
14040;SDS011;7095;51.388;6.196;2024-03-17T07:53:46;7.57;;;6.37;;
14040;SDS011;7095;51.388;6.196;2024-03-17T07:56:15;8.80;;;6.37;;
14040;SDS011;7095;51.388;6.196;2024-03-17T07:58:45;7.07;;;6.17;;
14040;SDS011;7095;51.388;6.196;2024-03-17T08:01:16;7.43;;;6.27;;
14040;SDS011;7095;51.388;6.196;2024-03-17T08:03:49;9.57;;;5.97;;
14040;SDS011;7095;51.388;6.196;2024-03-17T08:06:22;8.47;;;6.30;;
14040;SDS011;7095;51.388;6.196;2024-03-17T08:08:52;9.93;;;6.23;;
14040;SDS011;7095;51.388;6.196;2024-03-17T08:11:23;8.57;;;5.97;;
14040;SDS011;7095;51.388;6.196;2024-03-17T08:14:19;10.07;;;6.27;;
14040;SDS011;7095;51.388;6.196;2024-03-17T08:16:51;6.77;;;5.73;;
14040;SDS011;7095;51.388;6.196;2024-03-17T08:19:19;6.70;;;5.43;;
14040;SDS011;7095;51.388;6.196;2024-03-17T08:21:48;7.03;;;5.43;;
14040;SDS011;7095;51.388;6.196;2024-03-17T08:24:18;9.07;;;5.70;;
14040;SDS011;7095;51.388;6.196;2024-03-17T08:26:45;11.37;;;5.63;;
14040;SDS011;7095;51.388;6.196;2024-03-17T08:32:48;7.03;;;4.80;;
14040;SDS011;7095;51.388;6.196;2024-03-17T08:35:15;8.07;;;5.10;;
14040;SDS011;7095;51.388;6.196;2024-03-17T08:37:43;6.37;;;4.90;;
14040;SDS011;7095;51.388;6.196;2024-03-17T08:40:12;6.57;;;4.53;;
14040;SDS011;7095;51.388;6.196;2024-03-17T08:42:40;6.40;;;5.07;;
14040;SDS011;7095;51.388;6.196;2024-03-17T08:45:08;7.17;;;4.87;;
14040;SDS011;7095;51.388;6.196;2024-03-17T08:47:38;8.63;;;4.80;;
14040;SDS011;7095;51.388;6.196;2024-03-17T08:50:09;6.03;;;4.43;;
14040;SDS011;7095;51.388;6.196;2024-03-17T08:52:38;6.93;;;4.87;;
14040;SDS011;7095;51.388;6.196;2024-03-17T08:55:09;8.10;;;5.50;;
14040;SDS011;7095;51.388;6.196;2024-03-17T08:57:41;6.17;;;4.70;;
14040;SDS011;7095;51.388;6.196;2024-03-17T09:00:09;6.37;;;5.43;;
14040;SDS011;7095;51.388;6.196;2024-03-17T09:02:37;9.10;;;4.67;;
14040;SDS011;7095;51.388;6.196;2024-03-17T09:05:07;5.63;;;4.70;;
14040;SDS011;7095;51.388;6.196;2024-03-17T09:07:35;5.70;;;4.50;;
14040;SDS011;7095;51.388;6.196;2024-03-17T09:10:03;10.07;;;4.73;;
14040;SDS011;7095;51.388;6.196;2024-03-17T09:12:32;7.20;;;5.17;;
14040;SDS011;7095;51.388;6.196;2024-03-17T09:15:01;8.30;;;4.23;;
14040;SDS011;7095;51.388;6.196;2024-03-17T09:17:29;6.40;;;4.70;;
14040;SDS011;7095;51.388;6.196;2024-03-17T09:19:57;7.67;;;5.00;;
14040;SDS011;7095;51.388;6.196;2024-03-17T09:22:25;8.50;;;5.20;;
14040;SDS011;7095;51.388;6.196;2024-03-17T09:24:53;8.67;;;5.50;;
14040;SDS011;7095;51.388;6.196;2024-03-17T09:27:20;8.60;;;5.40;;
14040;SDS011;7095;51.388;6.196;2024-03-17T09:29:51;5.83;;;5.20;;
14040;SDS011;7095;51.388;6.196;2024-03-17T09:32:20;6.03;;;5.07;;
14040;SDS011;7095;51.388;6.196;2024-03-17T09:34:51;10.90;;;5.47;;
14040;SDS011;7095;51.388;6.196;2024-03-17T09:37:22;6.60;;;5.20;;
14040;SDS011;7095;51.388;6.196;2024-03-17T09:39:49;7.23;;;5.17;;
14040;SDS011;7095;51.388;6.196;2024-03-17T09:42:17;7.90;;;5.10;;
14040;SDS011;7095;51.388;6.196;2024-03-17T09:44:46;8.40;;;5.93;;
14040;SDS011;7095;51.388;6.196;2024-03-17T09:47:16;8.57;;;5.23;;
14040;SDS011;7095;51.388;6.196;2024-03-17T09:49:48;5.47;;;4.80;;
14040;SDS011;7095;51.388;6.196;2024-03-17T09:52:19;5.40;;;4.83;;
14040;SDS011;7095;51.388;6.196;2024-03-17T09:54:53;9.53;;;5.23;;
14040;SDS011;7095;51.388;6.196;2024-03-17T09:57:26;12.80;;;5.63;;
14040;SDS011;7095;51.388;6.196;2024-03-17T09:59:56;7.43;;;5.40;;
14040;SDS011;7095;51.388;6.196;2024-03-17T10:02:24;7.23;;;4.93;;
14040;SDS011;7095;51.388;6.196;2024-03-17T10:04:54;7.47;;;4.57;;
14040;SDS011;7095;51.388;6.196;2024-03-17T10:07:28;7.30;;;5.37;;
14040;SDS011;7095;51.388;6.196;2024-03-17T10:10:11;8.03;;;4.63;;
14040;SDS011;7095;51.388;6.196;2024-03-17T10:12:39;5.90;;;4.80;;
14040;SDS011;7095;51.388;6.196;2024-03-17T10:15:08;5.47;;;4.97;;
14040;SDS011;7095;51.388;6.196;2024-03-17T10:17:38;5.87;;;4.70;;
14040;SDS011;7095;51.388;6.196;2024-03-17T10:20:14;6.90;;;5.07;;
14040;SDS011;7095;51.388;6.196;2024-03-17T10:22:58;7.63;;;5.43;;
14040;SDS011;7095;51.388;6.196;2024-03-17T10:25:27;7.27;;;5.37;;
14040;SDS011;7095;51.388;6.196;2024-03-17T10:27:56;10.03;;;5.10;;
14040;SDS011;7095;51.388;6.196;2024-03-17T10:30:25;6.77;;;5.30;;
14040;SDS011;7095;51.388;6.196;2024-03-17T10:32:56;7.67;;;5.07;;
14040;SDS011;7095;51.388;6.196;2024-03-17T10:35:34;6.87;;;4.93;;
14040;SDS011;7095;51.388;6.196;2024-03-17T10:38:04;8.70;;;5.63;;
14040;SDS011;7095;51.388;6.196;2024-03-17T10:40:33;8.30;;;5.87;;
14040;SDS011;7095;51.388;6.196;2024-03-17T10:43:03;8.43;;;5.10;;
14040;SDS011;7095;51.388;6.196;2024-03-17T10:45:32;10.47;;;5.50;;
14040;SDS011;7095;51.388;6.196;2024-03-17T10:48:03;6.57;;;5.00;;
14040;SDS011;7095;51.388;6.196;2024-03-17T10:50:36;8.17;;;5.37;;
14040;SDS011;7095;51.388;6.196;2024-03-17T10:53:06;6.60;;;5.17;;
14040;SDS011;7095;51.388;6.196;2024-03-17T10:55:40;7.53;;;5.17;;
14040;SDS011;7095;51.388;6.196;2024-03-17T10:58:16;6.97;;;5.87;;
14040;SDS011;7095;51.388;6.196;2024-03-17T11:00:52;11.63;;;5.93;;
14040;SDS011;7095;51.388;6.196;2024-03-17T11:03:20;8.40;;;5.70;;
14040;SDS011;7095;51.388;6.196;2024-03-17T11:05:50;6.80;;;5.10;;
14040;SDS011;7095;51.388;6.196;2024-03-17T11:08:19;7.87;;;5.20;;
14040;SDS011;7095;51.388;6.196;2024-03-17T11:10:51;7.87;;;5.33;;
14040;SDS011;7095;51.388;6.196;2024-03-17T11:13:24;6.33;;;4.83;;
14040;SDS011;7095;51.388;6.196;2024-03-17T11:15:52;8.80;;;5.43;;
14040;SDS011;7095;51.388;6.196;2024-03-17T11:18:32;7.97;;;5.70;;
14040;SDS011;7095;51.388;6.196;2024-03-17T11:21:06;10.07;;;5.97;;
14040;SDS011;7095;51.388;6.196;2024-03-17T11:23:36;6.53;;;5.30;;
14040;SDS011;7095;51.388;6.196;2024-03-17T11:26:05;8.13;;;5.53;;
14040;SDS011;7095;51.388;6.196;2024-03-17T11:28:46;10.57;;;5.27;;
14040;SDS011;7095;51.388;6.196;2024-03-17T11:34:03;6.43;;;5.80;;
14040;SDS011;7095;51.388;6.196;2024-03-17T11:36:36;10.77;;;5.90;;
14040;SDS011;7095;51.388;6.196;2024-03-17T11:39:04;7.73;;;5.27;;
14040;SDS011;7095;51.388;6.196;2024-03-17T11:41:37;7.80;;;5.63;;
14040;SDS011;7095;51.388;6.196;2024-03-17T11:44:14;8.20;;;5.20;;
14040;SDS011;7095;51.388;6.196;2024-03-17T11:46:53;8.23;;;5.70;;
14040;SDS011;7095;51.388;6.196;2024-03-17T11:49:21;8.63;;;5.53;;
14040;SDS011;7095;51.388;6.196;2024-03-17T11:51:51;7.50;;;5.50;;
14040;SDS011;7095;51.388;6.196;2024-03-17T11:54:19;13.27;;;6.03;;
14040;SDS011;7095;51.388;6.196;2024-03-17T11:56:50;8.50;;;5.77;;
14040;SDS011;7095;51.388;6.196;2024-03-17T11:59:17;6.40;;;5.00;;
14040;SDS011;7095;51.388;6.196;2024-03-17T12:01:45;9.33;;;5.33;;
14040;SDS011;7095;51.388;6.196;2024-03-17T12:04:13;8.37;;;5.77;;
14040;SDS011;7095;51.388;6.196;2024-03-17T12:06:44;7.73;;;5.50;;
14040;SDS011;7095;51.388;6.196;2024-03-17T12:09:16;8.10;;;6.20;;
14040;SDS011;7095;51.388;6.196;2024-03-17T12:11:47;8.17;;;6.20;;
14040;SDS011;7095;51.388;6.196;2024-03-17T12:14:15;7.50;;;5.80;;
14040;SDS011;7095;51.388;6.196;2024-03-17T12:16:49;7.67;;;5.93;;
14040;SDS011;7095;51.388;6.196;2024-03-17T12:19:17;6.20;;;5.60;;
14040;SDS011;7095;51.388;6.196;2024-03-17T12:21:46;9.67;;;6.20;;
14040;SDS011;7095;51.388;6.196;2024-03-17T12:24:18;7.27;;;4.90;;
14040;SDS011;7095;51.388;6.196;2024-03-17T12:26:47;7.80;;;6.20;;
14040;SDS011;7095;51.388;6.196;2024-03-17T12:29:21;7.47;;;5.23;;
14040;SDS011;7095;51.388;6.196;2024-03-17T12:31:50;8.13;;;6.10;;
14040;SDS011;7095;51.388;6.196;2024-03-17T12:34:18;9.23;;;5.90;;
14040;SDS011;7095;51.388;6.196;2024-03-17T12:36:45;8.87;;;5.67;;
14040;SDS011;7095;51.388;6.196;2024-03-17T12:39:19;9.90;;;5.50;;
14040;SDS011;7095;51.388;6.196;2024-03-17T12:42:00;7.13;;;5.87;;
14040;SDS011;7095;51.388;6.196;2024-03-17T12:44:30;9.70;;;5.80;;
14040;SDS011;7095;51.388;6.196;2024-03-17T12:46:57;8.90;;;6.07;;
14040;SDS011;7095;51.388;6.196;2024-03-17T12:49:27;8.33;;;6.03;;
14040;SDS011;7095;51.388;6.196;2024-03-17T12:51:54;9.80;;;5.60;;
14040;SDS011;7095;51.388;6.196;2024-03-17T12:54:23;7.83;;;6.37;;
14040;SDS011;7095;51.388;6.196;2024-03-17T12:56:51;6.07;;;5.47;;
14040;SDS011;7095;51.388;6.196;2024-03-17T12:59:59;13.43;;;5.90;;
14040;SDS011;7095;51.388;6.196;2024-03-17T13:02:44;7.30;;;5.83;;
14040;SDS011;7095;51.388;6.196;2024-03-17T13:05:16;7.03;;;5.00;;
14040;SDS011;7095;51.388;6.196;2024-03-17T13:07:46;8.60;;;5.10;;
14040;SDS011;7095;51.388;6.196;2024-03-17T13:10:15;8.67;;;5.60;;
14040;SDS011;7095;51.388;6.196;2024-03-17T13:12:44;6.87;;;5.63;;
14040;SDS011;7095;51.388;6.196;2024-03-17T13:15:13;6.70;;;5.73;;
14040;SDS011;7095;51.388;6.196;2024-03-17T13:17:43;7.83;;;5.27;;
14040;SDS011;7095;51.388;6.196;2024-03-17T13:20:13;7.27;;;5.80;;
14040;SDS011;7095;51.388;6.196;2024-03-17T13:22:42;7.60;;;5.63;;
14040;SDS011;7095;51.388;6.196;2024-03-17T13:25:14;8.20;;;5.57;;
14040;SDS011;7095;51.388;6.196;2024-03-17T13:27:44;8.57;;;5.80;;
14040;SDS011;7095;51.388;6.196;2024-03-17T13:30:13;6.70;;;5.60;;
14040;SDS011;7095;51.388;6.196;2024-03-17T13:32:41;8.00;;;5.60;;
14040;SDS011;7095;51.388;6.196;2024-03-17T13:35:14;7.40;;;5.70;;
14040;SDS011;7095;51.388;6.196;2024-03-17T13:37:43;10.90;;;5.80;;
14040;SDS011;7095;51.388;6.196;2024-03-17T13:40:14;7.97;;;6.77;;
14040;SDS011;7095;51.388;6.196;2024-03-17T13:42:45;13.07;;;6.37;;
14040;SDS011;7095;51.388;6.196;2024-03-17T13:45:13;9.93;;;6.70;;
14040;SDS011;7095;51.388;6.196;2024-03-17T13:47:42;12.27;;;6.27;;
14040;SDS011;7095;51.388;6.196;2024-03-17T13:50:16;9.53;;;6.03;;
14040;SDS011;7095;51.388;6.196;2024-03-17T13:52:44;9.40;;;6.43;;
14040;SDS011;7095;51.388;6.196;2024-03-17T13:55:12;9.73;;;5.83;;
14040;SDS011;7095;51.388;6.196;2024-03-17T13:57:42;7.90;;;5.93;;
14040;SDS011;7095;51.388;6.196;2024-03-17T14:00:12;8.50;;;6.13;;
14040;SDS011;7095;51.388;6.196;2024-03-17T14:02:42;10.57;;;6.43;;
14040;SDS011;7095;51.388;6.196;2024-03-17T14:05:12;11.10;;;5.83;;
14040;SDS011;7095;51.388;6.196;2024-03-17T14:07:40;8.50;;;6.37;;
14040;SDS011;7095;51.388;6.196;2024-03-17T14:10:09;9.83;;;6.27;;
14040;SDS011;7095;51.388;6.196;2024-03-17T14:12:39;7.60;;;6.37;;
14040;SDS011;7095;51.388;6.196;2024-03-17T14:15:07;7.90;;;6.47;;
14040;SDS011;7095;51.388;6.196;2024-03-17T14:17:39;9.10;;;5.87;;
14040;SDS011;7095;51.388;6.196;2024-03-17T14:20:07;7.97;;;5.80;;
14040;SDS011;7095;51.388;6.196;2024-03-17T14:22:36;7.83;;;5.97;;
14040;SDS011;7095;51.388;6.196;2024-03-17T14:25:04;13.67;;;6.33;;
14040;SDS011;7095;51.388;6.196;2024-03-17T14:27:32;7.33;;;5.87;;
14040;SDS011;7095;51.388;6.196;2024-03-17T14:30:00;8.97;;;6.20;;
14040;SDS011;7095;51.388;6.196;2024-03-17T14:32:30;10.20;;;6.60;;
14040;SDS011;7095;51.388;6.196;2024-03-17T14:34:58;10.47;;;6.13;;
14040;SDS011;7095;51.388;6.196;2024-03-17T14:37:26;6.27;;;5.37;;
14040;SDS011;7095;51.388;6.196;2024-03-17T14:39:54;9.30;;;6.33;;
14040;SDS011;7095;51.388;6.196;2024-03-17T14:42:21;9.47;;;6.50;;
14040;SDS011;7095;51.388;6.196;2024-03-17T14:44:50;6.90;;;6.17;;
14040;SDS011;7095;51.388;6.196;2024-03-17T14:47:18;9.87;;;6.87;;
14040;SDS011;7095;51.388;6.196;2024-03-17T14:49:46;8.23;;;6.40;;
14040;SDS011;7095;51.388;6.196;2024-03-17T14:52:15;9.47;;;6.27;;
14040;SDS011;7095;51.388;6.196;2024-03-17T14:54:42;8.93;;;6.50;;
14040;SDS011;7095;51.388;6.196;2024-03-17T14:57:11;10.17;;;6.33;;
14040;SDS011;7095;51.388;6.196;2024-03-17T14:59:41;10.07;;;6.23;;
14040;SDS011;7095;51.388;6.196;2024-03-17T15:02:09;7.13;;;6.03;;
14040;SDS011;7095;51.388;6.196;2024-03-17T15:04:36;9.00;;;6.17;;
14040;SDS011;7095;51.388;6.196;2024-03-17T15:07:04;9.37;;;5.90;;
14040;SDS011;7095;51.388;6.196;2024-03-17T15:09:33;8.97;;;5.77;;